Time;durP1;ratioP1;P1;durP2;ratioP2;P2;SDS_P1;SDS_P2;PMS_P1;PMS_P2;Temp;Humidity;BMP_temperature;BMP_pressure;BME280_temperature;BME280_humidity;BME280_pressure;Samples;Min_cycle;Max_cycle;Signal;HPM_P1;HPM_P2
2020/12/22 00:01:11;;;;;;;2.83;2.03;;;11.40;99.90;;;;;;5068370;28;20187;-59
2020/12/22 00:03:36;;;;;;;1.90;1.80;;;11.60;99.90;;;;;;5068425;28;20185;-59
2020/12/22 00:06:02;;;;;;;2.10;2.00;;;11.50;99.90;;;;;;5067968;28;20241;-59
2020/12/22 00:08:27;;;;;;;2.13;1.80;;;11.60;99.90;;;;;;5068240;28;20665;-59
2020/12/22 00:10:53;;;;;;;1.67;1.57;;;11.40;99.90;;;;;;5068320;28;20182;-59
2020/12/22 00:13:18;;;;;;;1.83;1.73;;;11.50;99.90;;;;;;5069519;28;20647;-59
2020/12/22 00:15:44;;;;;;;2.03;1.90;;;11.80;99.90;;;;;;5068362;28;20196;-59
2020/12/22 00:18:11;;;;;;;2.30;1.93;;;11.60;99.90;;;;;;5068143;28;20217;-58
2020/12/22 00:20:37;;;;;;;2.30;1.80;;;11.30;99.90;;;;;;5069913;28;20500;-58
2020/12/22 00:23:03;;;;;;;2.20;1.83;;;11.40;99.90;;;;;;5068145;28;20197;-59
2020/12/22 00:25:28;;;;;;;1.97;1.80;;;11.70;99.90;;;;;;5068222;28;20208;-59
2020/12/22 00:27:54;;;;;;;2.30;1.80;;;11.70;99.90;;;;;;5068343;28;20495;-58
2020/12/22 00:30:20;;;;;;;3.40;1.87;;;11.80;99.90;;;;;;5068908;28;20185;-59
2020/12/22 00:32:45;;;;;;;1.70;1.60;;;11.40;99.90;;;;;;5068240;28;20654;-59
2020/12/22 00:35:11;;;;;;;1.80;1.70;;;11.60;99.90;;;;;;5069799;28;20194;-59
2020/12/22 00:37:37;;;;;;;1.50;1.40;;;11.40;99.90;;;;;;5068121;28;20221;-59
2020/12/22 00:40:04;;;;;;;1.70;1.60;;;11.60;99.90;;;;;;5069652;28;20428;-58
2020/12/22 00:42:30;;;;;;;2.38;1.75;;;11.70;99.90;;;;;;5067906;28;20181;-59
2020/12/22 00:44:56;;;;;;;2.08;1.95;;;11.60;99.90;;;;;;5068068;28;20218;-59
2020/12/22 00:47:22;;;;;;;3.20;1.73;;;11.50;99.90;;;;;;5067902;28;20244;-59
2020/12/22 00:49:48;;;;;;;1.67;1.50;;;11.70;99.90;;;;;;5067872;28;20841;-59
2020/12/22 00:52:13;;;;;;;1.30;1.20;;;11.50;99.90;;;;;;5068188;28;20474;-60
2020/12/22 00:54:39;;;;;;;1.20;1.10;;;11.50;99.90;;;;;;5067989;28;20431;-58
2020/12/22 00:57:04;;;;;;;1.40;1.30;;;11.20;99.90;;;;;;5067817;28;20198;-59
2020/12/22 00:59:30;;;;;;;1.40;1.30;;;11.80;99.90;;;;;;5067894;28;20523;-59
2020/12/22 01:01:55;;;;;;;1.40;1.30;;;11.90;99.90;;;;;;5071634;28;20209;-59
2020/12/22 01:04:21;;;;;;;1.53;1.43;;;11.90;99.90;;;;;;5071662;28;20447;-59
2020/12/22 01:06:46;;;;;;;1.37;1.27;;;11.80;99.90;;;;;;5071723;28;20213;-59
2020/12/22 01:09:12;;;;;;;1.43;1.33;;;11.70;99.90;;;;;;5071673;28;20569;-59
2020/12/22 01:11:39;;;;;;;1.00;0.90;;;12.00;99.90;;;;;;5068301;28;20201;-59
2020/12/22 01:14:08;;;;;;;1.02;1.00;;;11.90;99.90;;;;;;5069046;28;20179;-59
2020/12/22 01:16:34;;;;;;;1.08;1.00;;;12.10;99.90;;;;;;5058201;28;20197;-59
2020/12/22 01:18:59;;;;;;;1.33;1.20;;;11.90;99.90;;;;;;5071412;28;20247;-59
2020/12/22 01:21:25;;;;;;;1.23;0.93;;;12.10;99.90;;;;;;5071792;28;20184;-59
2020/12/22 01:23:51;;;;;;;1.43;1.20;;;12.10;99.90;;;;;;5072703;28;20266;-59
2020/12/22 01:26:25;;;;;;;1.10;1.00;;;12.20;99.90;;;;;;5071147;28;20214;-60
2020/12/22 01:28:52;;;;;;;1.73;1.20;;;12.20;99.90;;;;;;5063858;28;20667;-60
2020/12/22 01:31:26;;;;;;;1.20;1.10;;;12.20;99.90;;;;;;5066293;28;20183;-59
2020/12/22 01:33:52;;;;;;;1.23;1.05;;;12.10;99.90;;;;;;5071360;28;20327;-59
2020/12/22 01:36:19;;;;;;;1.40;1.00;;;12.40;99.90;;;;;;5071477;28;20636;-60
2020/12/22 01:38:45;;;;;;;2.28;1.10;;;12.30;99.90;;;;;;5070842;28;20196;-60
2020/12/22 01:41:11;;;;;;;1.10;1.00;;;12.20;99.90;;;;;;5071321;28;20188;-59
2020/12/22 01:43:37;;;;;;;1.00;0.90;;;12.10;99.90;;;;;;5071139;28;20336;-59
2020/12/22 01:46:04;;;;;;;0.90;0.90;;;12.20;99.90;;;;;;5070868;28;20464;-59
2020/12/22 01:48:30;;;;;;;3.03;1.23;;;12.30;99.90;;;;;;5070967;28;20266;-59
2020/12/22 01:50:56;;;;;;;1.10;1.00;;;12.40;99.90;;;;;;5071220;28;20176;-60
2020/12/22 01:53:24;;;;;;;1.10;1.00;;;12.40;99.90;;;;;;5071021;28;20738;-60
2020/12/22 01:55:50;;;;;;;0.90;0.90;;;12.40;99.90;;;;;;5071063;28;20448;-60
2020/12/22 01:58:15;;;;;;;0.87;0.80;;;12.40;99.90;;;;;;5071606;28;20182;-60
2020/12/22 02:00:42;;;;;;;0.70;0.70;;;12.30;99.90;;;;;;5070989;28;20275;-59
2020/12/22 02:03:08;;;;;;;1.00;1.00;;;12.60;99.90;;;;;;5070794;28;20201;-58
2020/12/22 02:05:36;;;;;;;1.05;0.95;;;12.40;99.90;;;;;;5070419;28;20229;-59
2020/12/22 02:08:03;;;;;;;0.70;0.63;;;12.50;99.90;;;;;;5070907;28;20187;-59
2020/12/22 02:10:28;;;;;;;1.10;0.70;;;12.50;99.90;;;;;;5070684;28;20618;-59
2020/12/22 02:12:54;;;;;;;1.00;0.73;;;12.50;99.90;;;;;;5063725;28;20274;-59
2020/12/22 02:15:19;;;;;;;1.47;0.70;;;12.30;99.90;;;;;;5070667;28;20190;-58
2020/12/22 02:17:45;;;;;;;1.07;0.60;;;12.50;99.90;;;;;;5071971;28;20746;-59
2020/12/22 02:20:11;;;;;;;0.70;0.70;;;12.40;99.90;;;;;;5070465;28;20178;-59
2020/12/22 02:22:37;;;;;;;0.60;0.50;;;12.80;99.90;;;;;;5070556;28;20426;-59
2020/12/22 02:25:05;;;;;;;1.87;0.60;;;12.80;99.90;;;;;;5069972;28;20257;-59
2020/12/22 02:27:36;;;;;;;0.60;0.60;;;12.50;99.90;;;;;;5069512;28;20462;-59
2020/12/22 02:30:03;;;;;;;1.00;0.60;;;12.80;99.90;;;;;;5069220;28;20245;-59
2020/12/22 02:32:29;;;;;;;0.60;0.50;;;12.50;99.90;;;;;;5071133;28;20556;-59
2020/12/22 02:34:54;;;;;;;0.90;0.50;;;12.80;99.90;;;;;;5069524;28;20173;-59
2020/12/22 02:37:21;;;;;;;0.70;0.50;;;12.80;99.90;;;;;;5069564;28;20259;-59
2020/12/22 02:39:48;;;;;;;0.90;0.60;;;12.80;99.90;;;;;;5069579;28;20205;-59
2020/12/22 02:42:14;;;;;;;0.60;0.50;;;13.00;99.90;;;;;;5071431;28;20192;-59
2020/12/22 02:44:39;;;;;;;1.20;0.60;;;12.90;99.90;;;;;;5069580;28;20218;-59
2020/12/22 02:47:12;;;;;;;0.60;0.50;;;12.80;99.90;;;;;;5069097;28;20510;-59
2020/12/22 02:49:38;;;;;;;1.05;0.40;;;12.80;99.90;;;;;;5069194;28;20180;-59
2020/12/22 02:52:04;;;;;;;1.02;0.60;;;12.90;99.90;;;;;;5069359;28;20172;-59
2020/12/22 02:54:30;;;;;;;0.60;0.50;;;12.90;99.90;;;;;;5069192;28;20707;-59
2020/12/22 02:56:55;;;;;;;0.70;0.50;;;12.80;99.90;;;;;;5070126;28;20664;-59
2020/12/22 02:59:21;;;;;;;1.17;0.60;;;12.90;99.90;;;;;;5068797;28;20208;-59
2020/12/22 03:01:46;;;;;;;1.43;0.57;;;12.60;99.90;;;;;;5068723;28;20641;-59
2020/12/22 03:04:12;;;;;;;0.53;0.43;;;12.70;99.90;;;;;;5068453;28;20188;-59
2020/12/22 03:06:38;;;;;;;5.03;0.57;;;12.70;99.90;;;;;;5068815;28;20692;-59
2020/12/22 03:09:05;;;;;;;1.00;0.47;;;12.80;99.90;;;;;;5070013;28;20488;-59
2020/12/22 03:11:31;;;;;;;2.55;0.50;;;13.00;99.90;;;;;;5066016;28;20433;-59
2020/12/22 03:13:56;;;;;;;0.70;0.70;;;13.00;99.90;;;;;;5065130;28;20182;-59
2020/12/22 03:16:22;;;;;;;0.60;0.50;;;13.00;99.90;;;;;;5068173;28;20201;-59
2020/12/22 03:18:47;;;;;;;0.60;0.47;;;12.90;99.90;;;;;;5068240;28;20183;-59
2020/12/22 03:21:15;;;;;;;0.60;0.50;;;12.80;99.90;;;;;;5068443;28;20615;-59
2020/12/22 03:23:41;;;;;;;1.08;0.50;;;12.90;99.90;;;;;;5067513;28;20282;-59
2020/12/22 03:26:06;;;;;;;1.17;0.60;;;12.90;99.90;;;;;;5052173;28;563672;-59
2020/12/22 03:28:32;;;;;;;0.60;0.50;;;12.60;99.90;;;;;;5066369;28;20198;-59
2020/12/22 03:31:03;;;;;;;0.60;0.50;;;12.90;99.90;;;;;;5068690;28;20189;-59
2020/12/22 03:33:29;;;;;;;1.40;0.57;;;12.80;99.90;;;;;;5068765;28;20192;-59
2020/12/22 03:35:55;;;;;;;0.60;0.50;;;13.20;99.90;;;;;;5068762;28;20600;-59
2020/12/22 03:38:21;;;;;;;1.17;0.40;;;12.90;99.90;;;;;;5068550;28;20232;-59
2020/12/22 03:40:47;;;;;;;0.60;0.50;;;13.00;99.90;;;;;;5068634;28;20448;-59
2020/12/22 03:43:12;;;;;;;0.60;0.50;;;13.00;99.90;;;;;;5068309;28;20596;-59
2020/12/22 03:45:39;;;;;;;1.63;0.57;;;13.10;99.90;;;;;;5068461;28;20434;-59
2020/12/22 03:48:05;;;;;;;0.70;0.57;;;13.00;99.90;;;;;;5068223;28;20183;-59
2020/12/22 03:50:31;;;;;;;0.60;0.50;;;12.80;99.90;;;;;;5068346;28;20202;-59
2020/12/22 03:53:01;;;;;;;0.60;0.50;;;13.00;99.90;;;;;;5068734;28;20206;-59
2020/12/22 03:55:27;;;;;;;1.20;0.50;;;12.70;99.90;;;;;;5055659;28;20430;-59
2020/12/22 03:57:52;;;;;;;0.97;0.53;;;13.20;99.90;;;;;;5068663;28;20210;-59
2020/12/22 04:00:18;;;;;;;1.60;1.50;;;13.00;99.90;;;;;;5068317;28;20438;-59
2020/12/22 04:02:44;;;;;;;0.60;0.50;;;13.10;99.90;;;;;;5068781;28;20194;-59
2020/12/22 04:05:10;;;;;;;0.53;0.40;;;12.90;99.90;;;;;;5068450;28;20217;-59
2020/12/22 04:07:35;;;;;;;0.60;0.50;;;13.20;99.90;;;;;;5068414;28;20648;-59
2020/12/22 04:10:02;;;;;;;0.50;0.40;;;12.90;99.90;;;;;;5068167;28;20215;-59
2020/12/22 04:12:28;;;;;;;0.60;0.50;;;12.80;99.90;;;;;;5068454;28;20254;-59
2020/12/22 04:14:53;;;;;;;0.50;0.40;;;12.90;99.90;;;;;;5067999;28;20669;-59
2020/12/22 04:17:19;;;;;;;0.60;0.50;;;12.90;99.90;;;;;;5068302;28;20212;-59
2020/12/22 04:19:44;;;;;;;0.70;0.50;;;13.10;99.90;;;;;;5068497;28;20656;-59
2020/12/22 04:22:10;;;;;;;0.53;0.43;;;12.90;99.90;;;;;;5068185;28;20183;-59
2020/12/22 04:24:36;;;;;;;0.60;0.50;;;13.20;99.90;;;;;;5067927;28;20700;-59
2020/12/22 04:27:01;;;;;;;0.57;0.40;;;13.20;99.90;;;;;;5069024;28;20216;-59
2020/12/22 04:29:27;;;;;;;0.70;0.40;;;13.20;99.90;;;;;;5066164;28;20447;-59
2020/12/22 04:31:53;;;;;;;0.50;0.40;;;13.20;99.90;;;;;;5061763;28;20172;-59
2020/12/22 04:34:18;;;;;;;2.07;0.77;;;13.00;99.90;;;;;;5068138;28;20184;-60
2020/12/22 04:36:44;;;;;;;0.50;0.40;;;13.20;99.90;;;;;;5069587;28;20707;-58
2020/12/22 04:39:09;;;;;;;0.50;0.40;;;13.30;99.90;;;;;;5068726;28;20191;-58
2020/12/22 04:41:37;;;;;;;0.60;0.50;;;13.30;99.90;;;;;;5067909;28;20187;-58
2020/12/22 04:44:03;;;;;;;0.60;0.40;;;13.00;99.90;;;;;;5067762;28;20200;-58
2020/12/22 04:46:31;;;;;;;0.60;0.50;;;13.30;99.90;;;;;;5067418;28;20214;-59
2020/12/22 04:48:57;;;;;;;0.60;0.45;;;13.10;99.90;;;;;;5067893;28;20187;-59
2020/12/22 04:51:24;;;;;;;0.60;0.50;;;13.10;99.90;;;;;;5068197;28;20199;-60
2020/12/22 04:53:51;;;;;;;0.98;0.50;;;13.10;99.90;;;;;;5068033;28;20188;-60
2020/12/22 04:56:19;;;;;;;0.70;0.50;;;13.10;99.90;;;;;;5067570;28;20237;-60
2020/12/22 04:58:44;;;;;;;0.70;0.50;;;13.30;99.90;;;;;;5067299;28;20190;-60
2020/12/22 05:01:10;;;;;;;0.60;0.50;;;13.10;99.90;;;;;;5067933;28;20204;-60
2020/12/22 05:03:35;;;;;;;0.63;0.50;;;13.10;99.90;;;;;;5067591;28;20740;-60
2020/12/22 05:06:01;;;;;;;0.60;0.50;;;13.30;99.90;;;;;;5067301;28;20630;-60
2020/12/22 05:08:27;;;;;;;0.80;0.50;;;13.30;99.90;;;;;;5067514;28;20737;-59
2020/12/22 05:10:53;;;;;;;0.60;0.50;;;13.00;99.90;;;;;;5067654;28;20266;-59
2020/12/22 05:13:20;;;;;;;0.60;0.50;;;13.10;99.90;;;;;;5067516;28;20234;-60
2020/12/22 05:15:51;;;;;;;0.80;0.50;;;13.10;99.90;;;;;;5064133;28;20212;-59
2020/12/22 05:18:24;;;;;;;0.60;0.50;;;12.90;99.90;;;;;;5068897;28;20187;-60
2020/12/22 05:20:51;;;;;;;0.52;0.40;;;13.40;99.90;;;;;;5067576;28;20239;-60
2020/12/22 05:23:22;;;;;;;0.85;0.73;;;13.30;99.90;;;;;;5067707;28;20184;-60
2020/12/22 05:25:51;;;;;;;0.60;0.50;;;13.10;99.90;;;;;;5066890;28;20286;-59
2020/12/22 05:28:19;;;;;;;0.60;0.50;;;13.20;99.90;;;;;;5066149;28;20186;-59
2020/12/22 05:30:46;;;;;;;0.63;0.47;;;13.30;99.90;;;;;;5067555;28;20187;-59
2020/12/22 05:33:11;;;;;;;0.60;0.50;;;13.20;99.90;;;;;;5068875;28;20191;-60
2020/12/22 05:35:40;;;;;;;0.70;0.60;;;13.00;99.90;;;;;;5067520;28;20561;-60
2020/12/22 05:38:06;;;;;;;0.60;0.40;;;13.20;99.90;;;;;;5067145;28;20520;-60
2020/12/22 05:40:32;;;;;;;0.60;0.50;;;13.20;99.90;;;;;;5067471;28;20187;-60
2020/12/22 05:42:59;;;;;;;0.60;0.40;;;13.30;99.90;;;;;;5067201;28;20598;-59
2020/12/22 05:45:31;;;;;;;1.15;0.50;;;13.50;99.90;;;;;;5067207;28;20188;-60
2020/12/22 05:48:00;;;;;;;1.45;0.50;;;13.30;99.90;;;;;;5070831;28;20233;-59
2020/12/22 05:50:26;;;;;;;0.60;0.50;;;13.30;99.90;;;;;;5071179;28;20191;-60
2020/12/22 05:52:54;;;;;;;1.33;0.75;;;13.20;99.90;;;;;;5070482;28;20337;-57
2020/12/22 05:55:30;;;;;;;0.70;0.50;;;13.10;99.90;;;;;;5070674;28;20181;-57
2020/12/22 05:58:18;;;;;;;0.95;0.60;;;13.50;99.90;;;;;;5070755;28;20223;-60
2020/12/22 06:00:44;;;;;;;0.60;0.60;;;13.10;99.90;;;;;;5071150;28;20588;-60
2020/12/22 06:03:15;;;;;;;1.40;0.55;;;13.40;99.90;;;;;;5070643;28;20199;-60
2020/12/22 06:05:43;;;;;;;0.88;0.60;;;13.50;99.90;;;;;;5070811;28;20195;-61
2020/12/22 06:08:10;;;;;;;0.60;0.50;;;13.00;99.90;;;;;;5070416;28;20192;-60
2020/12/22 06:10:38;;;;;;;0.60;0.50;;;13.60;99.90;;;;;;5070704;28;20222;-60
2020/12/22 06:13:05;;;;;;;0.90;0.65;;;13.30;99.90;;;;;;5070347;28;20646;-60
2020/12/22 06:15:32;;;;;;;0.60;0.55;;;13.30;99.90;;;;;;5070794;28;20637;-59
2020/12/22 06:17:58;;;;;;;1.02;0.63;;;13.30;99.90;;;;;;5070568;28;20188;-60
2020/12/22 06:20:26;;;;;;;0.75;0.60;;;13.40;99.90;;;;;;5072065;28;20180;-60
2020/12/22 06:23:06;;;;;;;0.70;0.50;;;13.50;99.90;;;;;;5070051;28;20687;-60
2020/12/22 06:25:33;;;;;;;0.70;0.70;;;13.60;99.90;;;;;;5071438;28;20196;-59
2020/12/22 06:27:59;;;;;;;0.60;0.50;;;13.50;99.90;;;;;;5069745;28;20187;-60
2020/12/22 06:30:50;;;;;;;0.70;0.60;;;13.70;99.90;;;;;;5071252;28;20181;-59
2020/12/22 06:33:18;;;;;;;0.60;0.50;;;13.50;99.90;;;;;;5066379;28;20476;-60
2020/12/22 06:35:59;;;;;;;1.13;0.60;;;13.70;99.90;;;;;;5070077;28;20184;-59
2020/12/22 06:38:48;;;;;;;0.90;0.65;;;13.50;99.90;;;;;;5069724;28;20260;-60
2020/12/22 06:41:34;;;;;;;0.80;0.68;;;13.60;99.90;;;;;;5070044;28;20209;-60
2020/12/22 06:44:26;;;;;;;0.73;0.50;;;13.30;99.90;;;;;;5070281;28;20531;-59
2020/12/22 06:46:52;;;;;;;0.50;0.40;;;13.10;99.90;;;;;;5069122;28;20232;-60
2020/12/22 06:49:39;;;;;;;0.70;0.50;;;13.70;99.90;;;;;;5070325;28;20544;-59
2020/12/22 06:52:27;;;;;;;1.10;0.70;;;13.80;99.90;;;;;;5069453;28;20208;-60
2020/12/22 06:54:53;;;;;;;1.00;0.50;;;13.50;99.90;;;;;;5069480;28;20219;-59
2020/12/22 06:57:48;;;;;;;0.60;0.50;;;13.90;99.90;;;;;;5070484;28;20622;-60
2020/12/22 07:00:26;;;;;;;1.73;0.50;;;13.90;99.90;;;;;;5069779;28;20192;-59
2020/12/22 07:03:08;;;;;;;0.80;0.50;;;13.60;99.90;;;;;;5070844;28;20536;-60
2020/12/22 07:05:38;;;;;;;0.80;0.60;;;13.80;99.90;;;;;;5070763;28;20266;-59
2020/12/22 07:08:05;;;;;;;0.60;0.50;;;13.70;99.90;;;;;;5068888;28;20276;-60
2020/12/22 07:10:35;;;;;;;0.60;0.50;;;13.60;99.90;;;;;;5069159;28;20188;-59
2020/12/22 07:13:05;;;;;;;0.80;0.55;;;13.60;99.90;;;;;;5069075;28;20621;-60
2020/12/22 07:15:37;;;;;;;0.70;0.50;;;13.50;99.90;;;;;;5069108;28;20258;-59
2020/12/22 07:18:12;;;;;;;1.98;0.60;;;13.70;99.90;;;;;;5069975;28;20188;-60
2020/12/22 07:20:40;;;;;;;0.80;0.60;;;13.90;99.90;;;;;;5068775;28;20571;-59
2020/12/22 07:23:06;;;;;;;0.60;0.47;;;13.80;99.90;;;;;;5069115;28;20257;-60
2020/12/22 07:25:32;;;;;;;2.22;0.88;;;13.80;99.90;;;;;;5068369;28;20540;-60
2020/12/22 07:28:00;;;;;;;1.83;0.70;;;13.90;99.90;;;;;;5067715;28;20725;-59
2020/12/22 07:30:26;;;;;;;0.98;0.70;;;14.00;99.90;;;;;;5069687;28;20827;-60
2020/12/22 07:32:52;;;;;;;0.80;0.60;;;13.80;99.90;;;;;;5059770;28;20178;-60
2020/12/22 07:35:18;;;;;;;0.90;0.83;;;13.50;99.90;;;;;;5062695;28;20246;-60
2020/12/22 07:37:44;;;;;;;0.80;0.80;;;14.10;99.90;;;;;;5068590;28;20538;-60
2020/12/22 07:40:10;;;;;;;1.27;0.60;;;14.00;99.90;;;;;;5069780;28;20619;-60
2020/12/22 07:42:36;;;;;;;0.70;0.70;;;13.70;99.90;;;;;;5070109;28;20180;-61
2020/12/22 07:45:06;;;;;;;0.90;0.60;;;13.60;99.90;;;;;;5068723;28;20282;-59
2020/12/22 07:47:32;;;;;;;3.05;1.80;;;13.80;99.90;;;;;;5068075;28;20203;-60
2020/12/22 07:50:14;;;;;;;1.33;0.90;;;14.20;99.90;;;;;;5068489;28;20593;-60
2020/12/22 07:52:40;;;;;;;0.75;0.60;;;14.40;99.90;;;;;;5068612;28;20209;-60
2020/12/22 07:55:07;;;;;;;1.00;0.77;;;14.20;99.90;;;;;;5069442;28;20827;-60
2020/12/22 07:57:36;;;;;;;1.67;1.10;;;14.00;99.90;;;;;;5068297;28;20724;-59
2020/12/22 08:00:05;;;;;;;1.10;0.60;;;14.10;99.90;;;;;;5067739;28;20199;-60
2020/12/22 08:02:31;;;;;;;1.35;0.60;;;14.30;99.90;;;;;;5068269;28;20185;-59
2020/12/22 08:04:57;;;;;;;2.10;0.60;;;14.20;99.90;;;;;;5068064;28;20192;-59
2020/12/22 08:07:22;;;;;;;0.83;0.50;;;14.10;99.90;;;;;;5068335;28;20216;-59
2020/12/22 08:09:48;;;;;;;2.03;0.87;;;14.30;99.90;;;;;;5067417;28;20219;-60
2020/12/22 08:12:14;;;;;;;0.63;0.50;;;14.30;99.90;;;;;;5069495;28;20247;-60
2020/12/22 08:14:43;;;;;;;0.60;0.50;;;14.40;99.90;;;;;;5068072;28;20192;-59
2020/12/22 08:17:14;;;;;;;0.68;0.50;;;14.00;99.90;;;;;;5069432;28;20212;-59
2020/12/22 08:19:40;;;;;;;0.60;0.50;;;14.50;99.90;;;;;;5069489;28;20180;-60
2020/12/22 08:22:06;;;;;;;0.80;0.52;;;14.30;99.90;;;;;;5067879;28;20558;-59
2020/12/22 08:24:37;;;;;;;0.90;0.50;;;14.20;99.90;;;;;;5067801;28;20202;-59
2020/12/22 08:27:04;;;;;;;0.60;0.50;;;14.40;99.90;;;;;;5066549;28;20216;-59
2020/12/22 08:29:30;;;;;;;0.70;0.50;;;14.00;99.90;;;;;;5067965;28;20208;-59
2020/12/22 08:31:59;;;;;;;1.17;1.07;;;14.30;99.90;;;;;;5068225;28;20235;-60
2020/12/22 08:34:25;;;;;;;2.17;1.98;;;14.30;99.90;;;;;;5067994;28;20428;-60
2020/12/22 08:36:50;;;;;;;0.70;0.60;;;14.10;99.90;;;;;;5067540;28;20580;-59
2020/12/22 08:39:24;;;;;;;0.97;0.60;;;14.10;99.90;;;;;;5069161;28;20208;-60
2020/12/22 08:42:05;;;;;;;0.70;0.50;;;14.50;99.90;;;;;;5068212;28;20192;-59
2020/12/22 08:44:31;;;;;;;1.00;0.70;;;14.40;99.90;;;;;;5067621;28;20326;-59
2020/12/22 08:47:09;;;;;;;1.00;0.60;;;14.50;99.90;;;;;;5067579;28;20742;-59
2020/12/22 08:49:35;;;;;;;0.80;0.70;;;14.50;99.90;;;;;;5067979;28;20437;-59
2020/12/22 08:52:14;;;;;;;0.60;0.50;;;14.60;99.90;;;;;;5067585;28;20189;-59
2020/12/22 08:54:40;;;;;;;0.70;0.60;;;14.30;99.90;;;;;;5067913;28;20231;-59
2020/12/22 08:57:18;;;;;;;2.55;0.60;;;14.30;99.90;;;;;;5067489;28;20237;-59
2020/12/22 08:59:45;;;;;;;0.80;0.70;;;14.40;99.90;;;;;;5067590;28;20562;-59
2020/12/22 09:02:29;;;;;;;0.60;0.50;;;14.60;99.90;;;;;;5067669;28;20193;-59
2020/12/22 09:04:56;;;;;;;1.70;1.10;;;14.70;99.90;;;;;;5067429;28;20195;-59
2020/12/22 09:07:26;;;;;;;0.65;0.50;;;14.80;99.90;;;;;;5067646;28;20768;-59
2020/12/22 09:09:52;;;;;;;1.55;0.73;;;15.10;99.90;;;;;;5054616;28;20563;-59
2020/12/22 09:12:18;;;;;;;1.75;1.00;;;14.60;99.90;;;;;;5064306;28;20201;-59
2020/12/22 09:14:45;;;;;;;1.97;0.60;;;15.00;99.90;;;;;;5060268;28;20634;-59
2020/12/22 09:17:13;;;;;;;0.70;0.50;;;14.90;99.90;;;;;;5067237;28;20205;-59
2020/12/22 09:19:47;;;;;;;0.88;0.57;;;14.80;99.90;;;;;;5067117;28;20185;-59
2020/12/22 09:22:14;;;;;;;0.65;0.50;;;14.70;99.90;;;;;;5070136;28;20193;-60
2020/12/22 09:24:41;;;;;;;0.60;0.43;;;14.50;99.90;;;;;;5071390;28;20200;-59
2020/12/22 09:27:12;;;;;;;0.95;0.75;;;14.50;99.90;;;;;;5070847;28;20205;-59
2020/12/22 09:29:39;;;;;;;0.60;0.50;;;15.00;99.90;;;;;;5070577;28;20184;-59
2020/12/22 09:32:06;;;;;;;1.63;0.80;;;14.60;99.90;;;;;;5071276;28;20176;-59
2020/12/22 09:34:33;;;;;;;0.80;0.60;;;14.60;99.90;;;;;;5071155;28;20271;-61
2020/12/22 09:37:01;;;;;;;1.92;0.90;;;14.60;99.90;;;;;;5071047;28;20259;-61
2020/12/22 09:39:28;;;;;;;0.90;0.73;;;14.70;99.90;;;;;;5070726;28;20188;-60
2020/12/22 09:41:54;;;;;;;0.80;0.70;;;14.50;99.90;;;;;;5071126;28;20736;-60
2020/12/22 09:44:21;;;;;;;0.70;0.60;;;14.50;99.90;;;;;;5071200;28;20641;-60
2020/12/22 09:46:51;;;;;;;0.70;0.60;;;14.50;99.90;;;;;;5070778;28;20216;-60
2020/12/22 09:49:17;;;;;;;0.60;0.50;;;14.50;99.90;;;;;;5070778;28;20181;-60
2020/12/22 09:51:43;;;;;;;0.60;0.50;;;14.30;99.90;;;;;;5070857;28;20284;-60
2020/12/22 09:54:10;;;;;;;1.37;0.63;;;14.40;99.90;;;;;;5070397;28;20271;-60
2020/12/22 09:56:36;;;;;;;1.25;0.80;;;14.50;99.90;;;;;;5070160;28;20951;-58
2020/12/22 09:59:03;;;;;;;0.93;0.60;;;14.70;99.90;;;;;;5070298;28;20234;-58
2020/12/22 10:01:28;;;;;;;1.25;0.68;;;14.30;99.90;;;;;;5070834;28;20199;-58
2020/12/22 10:03:57;;;;;;;0.60;0.60;;;14.40;99.90;;;;;;5070728;28;20184;-58
2020/12/22 10:06:25;;;;;;;0.70;0.60;;;14.50;99.90;;;;;;5070124;28;20288;-58
2020/12/22 10:08:52;;;;;;;0.85;0.60;;;14.40;99.90;;;;;;5070192;28;20298;-58
2020/12/22 10:11:18;;;;;;;0.60;0.50;;;14.70;99.90;;;;;;5070657;28;20173;-59
2020/12/22 10:13:45;;;;;;;0.60;0.55;;;14.70;99.90;;;;;;5065205;28;20251;-58
2020/12/22 10:16:12;;;;;;;0.90;0.60;;;14.80;99.90;;;;;;5061172;28;20634;-59
2020/12/22 10:18:38;;;;;;;1.35;0.63;;;14.50;99.90;;;;;;5069734;28;20188;-59
2020/12/22 10:21:12;;;;;;;0.70;0.60;;;14.70;99.90;;;;;;5070001;28;20198;-59
2020/12/22 10:23:38;;;;;;;0.60;0.60;;;14.80;99.90;;;;;;5069523;28;20208;-59
2020/12/22 10:26:05;;;;;;;1.90;0.90;;;15.00;99.90;;;;;;5070207;28;20228;-59
2020/12/22 10:28:33;;;;;;;0.73;0.73;;;15.10;99.90;;;;;;5070909;28;20176;-59
2020/12/22 10:31:00;;;;;;;0.80;0.70;;;15.20;99.90;;;;;;5069808;28;20217;-58
2020/12/22 10:33:26;;;;;;;0.80;0.70;;;14.80;99.90;;;;;;5060104;28;20716;-61
2020/12/22 10:35:52;;;;;;;0.70;0.60;;;15.00;99.90;;;;;;5066215;28;20697;-61
2020/12/22 10:38:19;;;;;;;0.90;0.60;;;15.10;99.90;;;;;;5069261;28;20181;-58
2020/12/22 10:40:44;;;;;;;1.00;0.90;;;15.10;99.90;;;;;;5069680;28;20638;-59
2020/12/22 10:43:10;;;;;;;0.83;0.63;;;15.00;99.90;;;;;;5069465;28;20242;-58
2020/12/22 10:45:37;;;;;;;0.60;0.57;;;15.10;99.90;;;;;;5069521;28;20815;-59
2020/12/22 10:48:04;;;;;;;4.05;2.95;;;14.90;99.90;;;;;;5069306;28;20188;-59
2020/12/22 10:50:30;;;;;;;0.70;0.60;;;15.10;99.90;;;;;;5068992;28;20173;-59
2020/12/22 10:52:55;;;;;;;1.38;0.75;;;15.20;99.90;;;;;;5069608;28;20176;-59
2020/12/22 10:55:23;;;;;;;1.10;1.00;;;15.20;99.90;;;;;;5069664;28;20173;-59
2020/12/22 10:57:48;;;;;;;5.78;3.58;;;15.50;99.90;;;;;;5068757;28;20196;-59
2020/12/22 11:00:14;;;;;;;1.37;1.00;;;15.40;99.90;;;;;;5070163;28;20275;-59
2020/12/22 11:02:40;;;;;;;1.33;0.77;;;15.50;99.90;;;;;;5069189;28;20712;-59
2020/12/22 11:05:07;;;;;;;0.70;0.60;;;15.30;99.90;;;;;;5069101;28;20205;-59
2020/12/22 11:07:54;;;;;;;0.80;0.75;;;15.20;99.90;;;;;;5068992;28;20466;-59
2020/12/22 11:10:19;;;;;;;2.42;2.22;;;15.40;99.90;;;;;;5070193;28;20180;-59
2020/12/22 11:12:46;;;;;;;0.70;0.60;;;15.40;99.90;;;;;;5062283;28;20534;-59
2020/12/22 11:15:12;;;;;;;2.10;0.68;;;15.60;99.90;;;;;;5068327;28;20267;-59
2020/12/22 11:17:38;;;;;;;0.70;0.50;;;15.40;99.90;;;;;;5068170;28;20201;-59
2020/12/22 11:20:03;;;;;;;0.93;0.60;;;14.90;99.90;;;;;;5069104;28;20185;-59
2020/12/22 11:22:29;;;;;;;0.97;0.70;;;15.60;99.90;;;;;;5085772;28;20631;-59
2020/12/22 11:24:55;;;;;;;0.87;0.60;;;15.40;99.90;;;;;;5068871;28;20918;-59
2020/12/22 11:27:20;;;;;;;1.37;0.60;;;15.30;99.90;;;;;;5065599;28;20278;-59
2020/12/22 11:29:46;;;;;;;1.00;0.80;;;15.10;99.90;;;;;;5058845;28;20645;-59
2020/12/22 11:32:12;;;;;;;1.20;1.00;;;15.40;99.90;;;;;;5069254;28;20185;-59
2020/12/22 11:34:38;;;;;;;0.80;0.70;;;15.10;99.90;;;;;;5067907;28;20230;-59
2020/12/22 11:37:04;;;;;;;0.68;0.50;;;15.30;99.90;;;;;;5070245;28;20455;-59
2020/12/22 11:39:30;;;;;;;0.70;0.60;;;15.10;99.90;;;;;;5068241;28;20173;-58
2020/12/22 11:42:06;;;;;;;0.70;0.65;;;15.20;99.90;;;;;;5068517;28;20177;-59
2020/12/22 11:44:32;;;;;;;0.85;0.70;;;15.30;99.90;;;;;;5068003;28;20187;-58
2020/12/22 11:46:58;;;;;;;0.90;0.77;;;15.20;99.90;;;;;;5068310;28;20296;-59
2020/12/22 11:49:24;;;;;;;0.60;0.50;;;15.10;99.90;;;;;;5067926;28;20528;-59
2020/12/22 11:51:55;;;;;;;1.10;0.60;;;15.10;99.90;;;;;;5068167;28;20442;-59
2020/12/22 11:54:21;;;;;;;0.75;0.63;;;15.00;99.90;;;;;;5068265;28;20641;-58
2020/12/22 11:56:47;;;;;;;1.03;0.80;;;14.90;99.90;;;;;;5068293;28;20204;-59
2020/12/22 11:59:13;;;;;;;1.55;1.00;;;15.20;99.90;;;;;;5069468;28;20405;-59
2020/12/22 12:01:38;;;;;;;1.00;0.60;;;15.10;99.90;;;;;;5084860;28;20225;-61
2020/12/22 12:04:04;;;;;;;1.00;0.70;;;15.00;99.90;;;;;;5069881;28;20177;-61
2020/12/22 12:06:29;;;;;;;1.13;0.83;;;15.20;99.90;;;;;;5067645;28;20247;-60
2020/12/22 12:08:55;;;;;;;0.70;0.57;;;15.10;99.90;;;;;;5067694;28;20192;-60
2020/12/22 12:11:21;;;;;;;0.80;0.70;;;15.20;99.90;;;;;;5068050;28;20215;-60
2020/12/22 12:13:46;;;;;;;0.87;0.70;;;14.90;99.90;;;;;;5061648;28;20188;-60
2020/12/22 12:16:18;;;;;;;0.70;0.60;;;15.10;99.90;;;;;;5067676;28;20208;-60
2020/12/22 12:18:47;;;;;;;1.27;0.80;;;15.20;99.90;;;;;;5067790;28;20756;-61
2020/12/22 12:21:15;;;;;;;1.02;0.93;;;15.40;99.90;;;;;;5064372;28;20189;-60
2020/12/22 12:23:41;;;;;;;2.00;1.60;;;15.30;99.90;;;;;;5067611;28;20617;-60
2020/12/22 12:26:07;;;;;;;0.70;0.60;;;15.60;99.90;;;;;;5067444;28;20244;-60
2020/12/22 12:28:32;;;;;;;1.40;0.60;;;15.50;99.90;;;;;;5067440;28;20258;-60
2020/12/22 12:30:58;;;;;;;0.80;0.60;;;15.60;99.90;;;;;;5067776;28;20551;-60
2020/12/22 12:33:24;;;;;;;0.70;0.50;;;15.70;99.90;;;;;;5067947;28;20184;-60
2020/12/22 12:35:49;;;;;;;0.60;0.50;;;15.60;99.90;;;;;;5067549;28;20215;-60
2020/12/22 12:38:15;;;;;;;1.00;0.60;;;15.60;99.90;;;;;;5067507;28;20181;-60
2020/12/22 12:40:45;;;;;;;0.63;0.43;;;15.70;99.90;;;;;;5067785;28;20181;-60
2020/12/22 12:43:11;;;;;;;0.60;0.50;;;15.70;99.90;;;;;;5067816;28;20176;-60
2020/12/22 12:45:37;;;;;;;0.70;0.60;;;15.60;99.90;;;;;;5067559;28;20200;-60
2020/12/22 12:48:02;;;;;;;5.67;1.00;;;14.90;99.90;;;;;;5067127;28;20238;-60
2020/12/22 12:50:28;;;;;;;2.17;1.37;;;15.30;99.90;;;;;;5068696;28;20599;-60